sensor_id;sensor_type;location;lat;lon;timestamp;P1;durP1;ratioP1;P2;durP2;ratioP2
39982;SDS011;25670;44.782;10.356;2023-03-01T00:02:08;41.35;;;23.63;;
39982;SDS011;25670;44.782;10.356;2023-03-01T00:04:35;48.00;;;22.77;;
39982;SDS011;25670;44.782;10.356;2023-03-01T00:07:02;48.55;;;23.40;;
39982;SDS011;25670;44.782;10.356;2023-03-01T00:09:28;43.33;;;22.95;;
39982;SDS011;25670;44.782;10.356;2023-03-01T00:11:54;42.00;;;23.67;;
39982;SDS011;25670;44.782;10.356;2023-03-01T00:14:21;41.92;;;23.80;;
39982;SDS011;25670;44.782;10.356;2023-03-01T00:16:47;40.58;;;22.05;;
39982;SDS011;25670;44.782;10.356;2023-03-01T00:19:16;41.78;;;21.85;;
39982;SDS011;25670;44.782;10.356;2023-03-01T00:21:43;31.60;;;18.70;;
39982;SDS011;25670;44.782;10.356;2023-03-01T00:24:10;34.90;;;18.48;;
39982;SDS011;25670;44.782;10.356;2023-03-01T00:26:36;26.27;;;16.85;;
39982;SDS011;25670;44.782;10.356;2023-03-01T00:29:03;26.33;;;16.35;;
39982;SDS011;25670;44.782;10.356;2023-03-01T00:31:30;24.73;;;15.80;;
39982;SDS011;25670;44.782;10.356;2023-03-01T00:33:59;23.30;;;14.93;;
39982;SDS011;25670;44.782;10.356;2023-03-01T00:36:28;26.80;;;15.10;;
39982;SDS011;25670;44.782;10.356;2023-03-01T00:38:56;23.17;;;14.48;;
39982;SDS011;25670;44.782;10.356;2023-03-01T00:41:23;21.10;;;14.18;;
39982;SDS011;25670;44.782;10.356;2023-03-01T00:43:52;21.58;;;12.77;;
39982;SDS011;25670;44.782;10.356;2023-03-01T00:46:19;25.92;;;14.45;;
39982;SDS011;25670;44.782;10.356;2023-03-01T00:48:48;24.02;;;14.23;;
39982;SDS011;25670;44.782;10.356;2023-03-01T00:51:16;30.85;;;14.30;;
39982;SDS011;25670;44.782;10.356;2023-03-01T00:53:44;21.67;;;13.82;;
39982;SDS011;25670;44.782;10.356;2023-03-01T00:56:12;19.40;;;12.48;;
39982;SDS011;25670;44.782;10.356;2023-03-01T00:58:39;22.60;;;13.70;;
39982;SDS011;25670;44.782;10.356;2023-03-01T01:01:10;20.73;;;12.40;;
39982;SDS011;25670;44.782;10.356;2023-03-01T01:03:48;21.20;;;13.65;;
39982;SDS011;25670;44.782;10.356;2023-03-01T01:06:17;23.10;;;12.95;;
39982;SDS011;25670;44.782;10.356;2023-03-01T01:08:45;25.02;;;14.00;;
39982;SDS011;25670;44.782;10.356;2023-03-01T01:11:12;18.98;;;12.63;;
39982;SDS011;25670;44.782;10.356;2023-03-01T01:13:39;20.48;;;13.07;;
39982;SDS011;25670;44.782;10.356;2023-03-01T01:16:06;22.50;;;13.20;;
39982;SDS011;25670;44.782;10.356;2023-03-01T01:18:33;19.50;;;13.13;;
39982;SDS011;25670;44.782;10.356;2023-03-01T01:21:03;21.10;;;12.38;;
39982;SDS011;25670;44.782;10.356;2023-03-01T01:23:34;24.88;;;13.80;;
39982;SDS011;25670;44.782;10.356;2023-03-01T01:26:04;20.27;;;12.75;;
39982;SDS011;25670;44.782;10.356;2023-03-01T01:28:35;20.35;;;12.75;;
39982;SDS011;25670;44.782;10.356;2023-03-01T01:31:02;18.70;;;14.25;;
39982;SDS011;25670;44.782;10.356;2023-03-01T01:33:29;23.38;;;14.02;;
39982;SDS011;25670;44.782;10.356;2023-03-01T01:35:55;25.13;;;13.80;;
39982;SDS011;25670;44.782;10.356;2023-03-01T01:38:22;20.42;;;13.40;;
39982;SDS011;25670;44.782;10.356;2023-03-01T01:40:49;22.98;;;14.60;;
39982;SDS011;25670;44.782;10.356;2023-03-01T01:43:21;22.90;;;14.38;;
39982;SDS011;25670;44.782;10.356;2023-03-01T01:45:47;22.33;;;14.05;;
39982;SDS011;25670;44.782;10.356;2023-03-01T01:48:16;21.65;;;13.88;;
39982;SDS011;25670;44.782;10.356;2023-03-01T01:50:49;22.58;;;13.88;;
39982;SDS011;25670;44.782;10.356;2023-03-01T01:53:24;28.85;;;15.73;;
39982;SDS011;25670;44.782;10.356;2023-03-01T01:55:53;19.30;;;13.75;;
39982;SDS011;25670;44.782;10.356;2023-03-01T01:58:22;21.08;;;13.48;;
39982;SDS011;25670;44.782;10.356;2023-03-01T02:00:51;27.95;;;14.77;;
39982;SDS011;25670;44.782;10.356;2023-03-01T02:03:18;25.73;;;14.13;;
39982;SDS011;25670;44.782;10.356;2023-03-01T02:08:29;26.17;;;14.95;;
39982;SDS011;25670;44.782;10.356;2023-03-01T02:10:58;22.92;;;14.25;;
39982;SDS011;25670;44.782;10.356;2023-03-01T02:13:30;19.58;;;14.07;;
39982;SDS011;25670;44.782;10.356;2023-03-01T02:15:58;23.67;;;13.65;;
39982;SDS011;25670;44.782;10.356;2023-03-01T02:18:24;22.30;;;14.60;;
39982;SDS011;25670;44.782;10.356;2023-03-01T02:23:34;24.15;;;14.25;;
39982;SDS011;25670;44.782;10.356;2023-03-01T02:26:20;31.20;;;16.13;;
39982;SDS011;25670;44.782;10.356;2023-03-01T02:28:58;29.15;;;14.05;;
39982;SDS011;25670;44.782;10.356;2023-03-01T02:31:25;27.60;;;15.05;;
39982;SDS011;25670;44.782;10.356;2023-03-01T02:36:48;23.60;;;14.60;;
39982;SDS011;25670;44.782;10.356;2023-03-01T02:39:26;27.27;;;14.98;;
39982;SDS011;25670;44.782;10.356;2023-03-01T02:41:56;32.92;;;15.25;;
39982;SDS011;25670;44.782;10.356;2023-03-01T02:44:24;28.70;;;15.65;;
39982;SDS011;25670;44.782;10.356;2023-03-01T02:46:51;33.30;;;15.95;;
39982;SDS011;25670;44.782;10.356;2023-03-01T02:55:10;30.33;;;16.10;;
39982;SDS011;25670;44.782;10.356;2023-03-01T02:57:40;25.40;;;15.65;;
39982;SDS011;25670;44.782;10.356;2023-03-01T03:00:20;24.63;;;14.80;;
39982;SDS011;25670;44.782;10.356;2023-03-01T03:02:51;28.53;;;15.77;;
39982;SDS011;25670;44.782;10.356;2023-03-01T03:05:23;34.50;;;15.50;;
39982;SDS011;25670;44.782;10.356;2023-03-01T03:07:56;27.45;;;16.48;;
39982;SDS011;25670;44.782;10.356;2023-03-01T03:10:26;21.80;;;14.90;;
39982;SDS011;25670;44.782;10.356;2023-03-01T03:13:08;28.25;;;15.75;;
39982;SDS011;25670;44.782;10.356;2023-03-01T03:15:37;28.50;;;15.48;;
39982;SDS011;25670;44.782;10.356;2023-03-01T03:18:05;28.10;;;16.38;;
39982;SDS011;25670;44.782;10.356;2023-03-01T03:23:02;27.30;;;14.05;;
39982;SDS011;25670;44.782;10.356;2023-03-01T03:25:29;29.45;;;15.30;;
39982;SDS011;25670;44.782;10.356;2023-03-01T03:27:55;29.08;;;16.60;;
39982;SDS011;25670;44.782;10.356;2023-03-01T03:30:24;24.42;;;15.63;;
39982;SDS011;25670;44.782;10.356;2023-03-01T03:32:51;28.85;;;15.45;;
39982;SDS011;25670;44.782;10.356;2023-03-01T03:35:40;23.02;;;14.68;;
39982;SDS011;25670;44.782;10.356;2023-03-01T03:38:08;28.27;;;15.73;;
39982;SDS011;25670;44.782;10.356;2023-03-01T03:40:41;26.77;;;14.95;;
39982;SDS011;25670;44.782;10.356;2023-03-01T03:43:12;29.23;;;16.17;;
39982;SDS011;25670;44.782;10.356;2023-03-01T03:45:40;29.70;;;16.65;;
39982;SDS011;25670;44.782;10.356;2023-03-01T03:48:07;27.60;;;15.65;;
39982;SDS011;25670;44.782;10.356;2023-03-01T03:50:38;34.10;;;15.07;;
39982;SDS011;25670;44.782;10.356;2023-03-01T03:53:06;26.15;;;14.85;;
39982;SDS011;25670;44.782;10.356;2023-03-01T03:55:34;24.45;;;14.90;;
39982;SDS011;25670;44.782;10.356;2023-03-01T03:58:05;27.50;;;15.65;;
39982;SDS011;25670;44.782;10.356;2023-03-01T04:00:43;25.08;;;15.02;;
39982;SDS011;25670;44.782;10.356;2023-03-01T04:03:11;28.70;;;16.33;;
39982;SDS011;25670;44.782;10.356;2023-03-01T04:05:39;24.23;;;16.20;;
39982;SDS011;25670;44.782;10.356;2023-03-01T04:08:06;26.88;;;16.70;;
39982;SDS011;25670;44.782;10.356;2023-03-01T04:10:37;22.15;;;14.73;;
39982;SDS011;25670;44.782;10.356;2023-03-01T04:13:04;25.50;;;15.13;;
39982;SDS011;25670;44.782;10.356;2023-03-01T04:15:32;23.08;;;14.80;;
39982;SDS011;25670;44.782;10.356;2023-03-01T04:17:59;29.05;;;15.18;;
39982;SDS011;25670;44.782;10.356;2023-03-01T04:20:27;27.02;;;15.20;;
39982;SDS011;25670;44.782;10.356;2023-03-01T04:23:02;23.60;;;15.40;;
39982;SDS011;25670;44.782;10.356;2023-03-01T04:25:44;23.10;;;14.88;;
39982;SDS011;25670;44.782;10.356;2023-03-01T04:28:20;26.70;;;15.37;;
39982;SDS011;25670;44.782;10.356;2023-03-01T04:30:49;31.25;;;15.80;;
39982;SDS011;25670;44.782;10.356;2023-03-01T04:33:17;25.08;;;15.43;;
39982;SDS011;25670;44.782;10.356;2023-03-01T04:35:44;21.85;;;14.20;;
39982;SDS011;25670;44.782;10.356;2023-03-01T04:38:10;22.98;;;13.73;;
39982;SDS011;25670;44.782;10.356;2023-03-01T04:40:37;20.50;;;13.30;;
39982;SDS011;25670;44.782;10.356;2023-03-01T04:43:03;23.50;;;13.95;;
39982;SDS011;25670;44.782;10.356;2023-03-01T04:45:31;19.55;;;13.85;;
39982;SDS011;25670;44.782;10.356;2023-03-01T04:47:57;21.33;;;14.32;;
39982;SDS011;25670;44.782;10.356;2023-03-01T04:50:24;24.20;;;13.80;;
39982;SDS011;25670;44.782;10.356;2023-03-01T04:52:51;21.80;;;13.73;;
39982;SDS011;25670;44.782;10.356;2023-03-01T04:55:18;21.60;;;14.02;;
39982;SDS011;25670;44.782;10.356;2023-03-01T04:57:44;18.88;;;13.50;;
39982;SDS011;25670;44.782;10.356;2023-03-01T05:00:11;23.08;;;13.07;;
39982;SDS011;25670;44.782;10.356;2023-03-01T05:02:52;20.92;;;13.45;;
39982;SDS011;25670;44.782;10.356;2023-03-01T05:07:51;21.92;;;13.98;;
39982;SDS011;25670;44.782;10.356;2023-03-01T05:10:18;25.92;;;14.18;;
39982;SDS011;25670;44.782;10.356;2023-03-01T05:12:45;25.10;;;14.43;;
39982;SDS011;25670;44.782;10.356;2023-03-01T05:15:12;23.65;;;15.23;;
39982;SDS011;25670;44.782;10.356;2023-03-01T05:17:39;25.23;;;15.90;;
39982;SDS011;25670;44.782;10.356;2023-03-01T05:20:06;21.52;;;13.90;;
39982;SDS011;25670;44.782;10.356;2023-03-01T05:22:35;33.75;;;15.68;;
39982;SDS011;25670;44.782;10.356;2023-03-01T05:25:02;28.48;;;15.73;;
39982;SDS011;25670;44.782;10.356;2023-03-01T05:27:29;26.90;;;15.68;;
39982;SDS011;25670;44.782;10.356;2023-03-01T05:29:56;26.80;;;16.77;;
39982;SDS011;25670;44.782;10.356;2023-03-01T05:32:22;24.92;;;14.82;;
39982;SDS011;25670;44.782;10.356;2023-03-01T05:34:49;30.45;;;15.15;;
39982;SDS011;25670;44.782;10.356;2023-03-01T05:37:17;29.08;;;16.15;;
39982;SDS011;25670;44.782;10.356;2023-03-01T05:39:45;25.90;;;16.27;;
39982;SDS011;25670;44.782;10.356;2023-03-01T05:42:11;27.30;;;15.38;;
39982;SDS011;25670;44.782;10.356;2023-03-01T05:44:38;26.70;;;16.15;;
39982;SDS011;25670;44.782;10.356;2023-03-01T05:47:04;26.25;;;15.82;;
39982;SDS011;25670;44.782;10.356;2023-03-01T05:49:31;27.08;;;17.05;;
39982;SDS011;25670;44.782;10.356;2023-03-01T05:51:57;24.27;;;14.98;;
39982;SDS011;25670;44.782;10.356;2023-03-01T05:54:24;29.45;;;15.57;;
39982;SDS011;25670;44.782;10.356;2023-03-01T05:56:50;26.77;;;15.80;;
39982;SDS011;25670;44.782;10.356;2023-03-01T05:59:16;24.08;;;15.07;;
39982;SDS011;25670;44.782;10.356;2023-03-01T06:01:43;32.53;;;15.70;;
39982;SDS011;25670;44.782;10.356;2023-03-01T06:04:09;38.13;;;16.08;;
39982;SDS011;25670;44.782;10.356;2023-03-01T06:06:36;25.63;;;15.85;;
39982;SDS011;25670;44.782;10.356;2023-03-01T06:09:03;27.92;;;16.42;;
39982;SDS011;25670;44.782;10.356;2023-03-01T06:11:35;26.92;;;14.68;;
39982;SDS011;25670;44.782;10.356;2023-03-01T06:14:01;30.45;;;15.55;;
39982;SDS011;25670;44.782;10.356;2023-03-01T06:16:28;25.02;;;14.30;;
39982;SDS011;25670;44.782;10.356;2023-03-01T06:18:54;26.05;;;14.35;;
39982;SDS011;25670;44.782;10.356;2023-03-01T06:21:21;23.35;;;14.57;;
39982;SDS011;25670;44.782;10.356;2023-03-01T06:23:47;23.88;;;14.27;;
39982;SDS011;25670;44.782;10.356;2023-03-01T06:26:14;27.67;;;15.05;;
39982;SDS011;25670;44.782;10.356;2023-03-01T06:28:40;23.98;;;13.93;;
39982;SDS011;25670;44.782;10.356;2023-03-01T06:31:07;21.30;;;14.05;;
39982;SDS011;25670;44.782;10.356;2023-03-01T06:33:34;25.58;;;14.75;;
39982;SDS011;25670;44.782;10.356;2023-03-01T06:36:01;21.55;;;14.55;;
39982;SDS011;25670;44.782;10.356;2023-03-01T06:38:28;26.90;;;13.85;;
39982;SDS011;25670;44.782;10.356;2023-03-01T06:40:54;24.65;;;15.18;;
39982;SDS011;25670;44.782;10.356;2023-03-01T06:43:22;25.67;;;15.15;;
39982;SDS011;25670;44.782;10.356;2023-03-01T06:45:49;23.95;;;14.52;;
39982;SDS011;25670;44.782;10.356;2023-03-01T06:48:15;31.13;;;15.10;;
39982;SDS011;25670;44.782;10.356;2023-03-01T06:50:42;32.83;;;15.48;;
39982;SDS011;25670;44.782;10.356;2023-03-01T06:53:09;27.55;;;15.48;;
39982;SDS011;25670;44.782;10.356;2023-03-01T06:55:36;27.90;;;15.95;;
39982;SDS011;25670;44.782;10.356;2023-03-01T06:58:02;27.48;;;15.30;;
39982;SDS011;25670;44.782;10.356;2023-03-01T07:00:29;28.67;;;15.88;;
39982;SDS011;25670;44.782;10.356;2023-03-01T07:03:00;19.85;;;12.82;;
39982;SDS011;25670;44.782;10.356;2023-03-01T07:05:28;17.08;;;11.90;;
39982;SDS011;25670;44.782;10.356;2023-03-01T07:07:55;23.40;;;13.57;;
39982;SDS011;25670;44.782;10.356;2023-03-01T07:10:21;21.50;;;13.77;;
39982;SDS011;25670;44.782;10.356;2023-03-01T07:12:48;22.77;;;14.40;;
39982;SDS011;25670;44.782;10.356;2023-03-01T07:15:14;25.23;;;14.32;;
39982;SDS011;25670;44.782;10.356;2023-03-01T07:17:41;24.48;;;15.35;;
39982;SDS011;25670;44.782;10.356;2023-03-01T07:20:10;27.85;;;15.90;;
39982;SDS011;25670;44.782;10.356;2023-03-01T07:22:36;27.83;;;15.80;;
39982;SDS011;25670;44.782;10.356;2023-03-01T07:25:06;24.77;;;15.57;;
39982;SDS011;25670;44.782;10.356;2023-03-01T07:27:33;23.23;;;14.65;;
39982;SDS011;25670;44.782;10.356;2023-03-01T07:29:59;24.80;;;15.55;;
39982;SDS011;25670;44.782;10.356;2023-03-01T07:32:25;30.63;;;15.02;;
39982;SDS011;25670;44.782;10.356;2023-03-01T07:34:52;25.33;;;15.70;;
39982;SDS011;25670;44.782;10.356;2023-03-01T07:37:18;30.33;;;15.68;;
39982;SDS011;25670;44.782;10.356;2023-03-01T07:39:45;21.02;;;14.38;;
39982;SDS011;25670;44.782;10.356;2023-03-01T07:42:12;25.00;;;14.05;;
39982;SDS011;25670;44.782;10.356;2023-03-01T07:44:38;24.50;;;14.98;;
39982;SDS011;25670;44.782;10.356;2023-03-01T07:47:04;22.83;;;14.70;;
39982;SDS011;25670;44.782;10.356;2023-03-01T07:49:31;23.48;;;14.38;;
39982;SDS011;25670;44.782;10.356;2023-03-01T07:51:57;26.10;;;14.25;;
39982;SDS011;25670;44.782;10.356;2023-03-01T07:54:24;24.05;;;14.90;;
39982;SDS011;25670;44.782;10.356;2023-03-01T07:56:51;23.92;;;15.02;;
39982;SDS011;25670;44.782;10.356;2023-03-01T07:59:17;29.92;;;14.73;;
39982;SDS011;25670;44.782;10.356;2023-03-01T08:01:44;29.08;;;15.48;;
39982;SDS011;25670;44.782;10.356;2023-03-01T08:04:10;20.60;;;13.82;;
39982;SDS011;25670;44.782;10.356;2023-03-01T08:06:37;26.10;;;15.02;;
39982;SDS011;25670;44.782;10.356;2023-03-01T08:09:03;35.75;;;15.10;;
39982;SDS011;25670;44.782;10.356;2023-03-01T08:11:30;29.00;;;14.30;;
39982;SDS011;25670;44.782;10.356;2023-03-01T08:13:57;25.52;;;14.10;;
39982;SDS011;25670;44.782;10.356;2023-03-01T08:16:23;27.90;;;13.98;;
39982;SDS011;25670;44.782;10.356;2023-03-01T08:18:49;26.95;;;15.23;;
39982;SDS011;25670;44.782;10.356;2023-03-01T08:21:17;23.27;;;14.20;;
39982;SDS011;25670;44.782;10.356;2023-03-01T08:23:44;27.77;;;14.70;;
39982;SDS011;25670;44.782;10.356;2023-03-01T08:26:12;19.48;;;13.20;;
39982;SDS011;25670;44.782;10.356;2023-03-01T08:28:40;25.23;;;14.82;;
39982;SDS011;25670;44.782;10.356;2023-03-01T08:31:20;26.05;;;13.13;;
39982;SDS011;25670;44.782;10.356;2023-03-01T08:33:49;28.15;;;13.63;;
39982;SDS011;25670;44.782;10.356;2023-03-01T08:36:21;26.08;;;14.85;;
39982;SDS011;25670;44.782;10.356;2023-03-01T08:38:48;27.70;;;14.85;;
39982;SDS011;25670;44.782;10.356;2023-03-01T08:41:15;32.63;;;15.00;;
39982;SDS011;25670;44.782;10.356;2023-03-01T08:43:41;21.95;;;14.40;;
39982;SDS011;25670;44.782;10.356;2023-03-01T08:46:08;33.05;;;16.15;;
39982;SDS011;25670;44.782;10.356;2023-03-01T08:48:35;31.70;;;18.23;;
39982;SDS011;25670;44.782;10.356;2023-03-01T08:51:15;27.85;;;15.80;;
39982;SDS011;25670;44.782;10.356;2023-03-01T08:53:42;24.52;;;14.82;;
39982;SDS011;25670;44.782;10.356;2023-03-01T08:56:09;24.33;;;14.50;;
39982;SDS011;25670;44.782;10.356;2023-03-01T08:58:36;27.27;;;14.63;;
39982;SDS011;25670;44.782;10.356;2023-03-01T09:01:08;25.08;;;14.52;;
39982;SDS011;25670;44.782;10.356;2023-03-01T09:03:35;24.98;;;13.75;;
39982;SDS011;25670;44.782;10.356;2023-03-01T09:06:02;16.08;;;13.18;;
39982;SDS011;25670;44.782;10.356;2023-03-01T09:08:30;22.25;;;14.25;;
39982;SDS011;25670;44.782;10.356;2023-03-01T09:10:56;23.00;;;12.68;;
39982;SDS011;25670;44.782;10.356;2023-03-01T09:13:23;21.08;;;13.82;;
39982;SDS011;25670;44.782;10.356;2023-03-01T09:15:50;22.30;;;15.02;;
39982;SDS011;25670;44.782;10.356;2023-03-01T09:18:17;19.40;;;13.35;;
39982;SDS011;25670;44.782;10.356;2023-03-01T09:20:43;26.05;;;14.98;;
39982;SDS011;25670;44.782;10.356;2023-03-01T09:23:10;31.23;;;13.88;;
39982;SDS011;25670;44.782;10.356;2023-03-01T09:25:36;20.38;;;12.98;;
39982;SDS011;25670;44.782;10.356;2023-03-01T09:28:02;23.20;;;13.88;;
39982;SDS011;25670;44.782;10.356;2023-03-01T09:30:29;22.55;;;12.48;;
39982;SDS011;25670;44.782;10.356;2023-03-01T09:32:56;27.20;;;14.20;;
39982;SDS011;25670;44.782;10.356;2023-03-01T09:35:22;19.50;;;13.52;;
39982;SDS011;25670;44.782;10.356;2023-03-01T09:37:49;30.42;;;13.57;;
39982;SDS011;25670;44.782;10.356;2023-03-01T09:40:16;23.70;;;13.63;;
39982;SDS011;25670;44.782;10.356;2023-03-01T09:43:08;23.38;;;13.40;;
39982;SDS011;25670;44.782;10.356;2023-03-01T09:45:38;23.33;;;13.63;;
39982;SDS011;25670;44.782;10.356;2023-03-01T09:48:19;18.42;;;12.88;;
39982;SDS011;25670;44.782;10.356;2023-03-01T09:50:50;21.33;;;12.68;;
39982;SDS011;25670;44.782;10.356;2023-03-01T09:56:16;21.67;;;13.68;;
39982;SDS011;25670;44.782;10.356;2023-03-01T09:58:52;19.00;;;12.82;;
39982;SDS011;25670;44.782;10.356;2023-03-01T10:04:24;21.48;;;13.23;;
39982;SDS011;25670;44.782;10.356;2023-03-01T10:06:58;19.30;;;13.02;;
39982;SDS011;25670;44.782;10.356;2023-03-01T10:09:33;17.70;;;12.48;;
39982;SDS011;25670;44.782;10.356;2023-03-01T10:12:02;19.15;;;12.85;;
39982;SDS011;25670;44.782;10.356;2023-03-01T10:17:01;23.27;;;12.75;;
39982;SDS011;25670;44.782;10.356;2023-03-01T10:22:11;26.33;;;12.35;;
39982;SDS011;25670;44.782;10.356;2023-03-01T10:24:53;17.80;;;11.10;;
39982;SDS011;25670;44.782;10.356;2023-03-01T10:27:26;18.90;;;11.68;;
39982;SDS011;25670;44.782;10.356;2023-03-01T10:32:48;14.82;;;11.38;;
39982;SDS011;25670;44.782;10.356;2023-03-01T10:35:24;17.10;;;10.73;;
39982;SDS011;25670;44.782;10.356;2023-03-01T10:38:02;17.33;;;10.98;;
39982;SDS011;25670;44.782;10.356;2023-03-01T10:40:29;16.85;;;10.70;;
39982;SDS011;25670;44.782;10.356;2023-03-01T10:42:59;13.65;;;10.27;;
39982;SDS011;25670;44.782;10.356;2023-03-01T10:50:43;24.38;;;10.73;;
39982;SDS011;25670;44.782;10.356;2023-03-01T10:53:33;18.00;;;10.27;;
39982;SDS011;25670;44.782;10.356;2023-03-01T10:56:14;17.63;;;10.57;;
39982;SDS011;25670;44.782;10.356;2023-03-01T10:58:55;13.38;;;11.25;;
39982;SDS011;25670;44.782;10.356;2023-03-01T11:01:33;16.25;;;9.82;;
39982;SDS011;25670;44.782;10.356;2023-03-01T11:06:36;10.82;;;9.35;;
39982;SDS011;25670;44.782;10.356;2023-03-01T11:11:41;14.85;;;9.07;;
39982;SDS011;25670;44.782;10.356;2023-03-01T11:16:45;13.45;;;9.80;;
39982;SDS011;25670;44.782;10.356;2023-03-01T11:19:18;10.75;;;9.32;;
39982;SDS011;25670;44.782;10.356;2023-03-01T11:24:23;14.60;;;9.95;;
39982;SDS011;25670;44.782;10.356;2023-03-01T11:26:56;14.68;;;10.15;;
39982;SDS011;25670;44.782;10.356;2023-03-01T11:29:27;12.93;;;9.95;;
39982;SDS011;25670;44.782;10.356;2023-03-01T11:31:59;12.32;;;9.32;;
39982;SDS011;25670;44.782;10.356;2023-03-01T11:34:50;12.35;;;10.05;;
39982;SDS011;25670;44.782;10.356;2023-03-01T11:37:59;18.98;;;10.50;;
39982;SDS011;25670;44.782;10.356;2023-03-01T11:45:47;16.88;;;10.30;;
39982;SDS011;25670;44.782;10.356;2023-03-01T12:08:13;21.63;;;13.45;;
39982;SDS011;25670;44.782;10.356;2023-03-01T12:13:46;25.83;;;15.98;;
39982;SDS011;25670;44.782;10.356;2023-03-01T12:20:02;30.58;;;15.18;;
39982;SDS011;25670;44.782;10.356;2023-03-01T12:27:56;35.35;;;16.50;;
39982;SDS011;25670;44.782;10.356;2023-03-01T12:36:03;33.47;;;15.50;;
39982;SDS011;25670;44.782;10.356;2023-03-01T12:38:50;25.55;;;15.25;;
39982;SDS011;25670;44.782;10.356;2023-03-01T12:41:49;27.88;;;15.23;;
39982;SDS011;25670;44.782;10.356;2023-03-01T12:50:15;25.65;;;15.38;;
39982;SDS011;25670;44.782;10.356;2023-03-01T12:55:35;34.83;;;17.50;;
39982;SDS011;25670;44.782;10.356;2023-03-01T12:58:19;32.67;;;16.67;;
39982;SDS011;25670;44.782;10.356;2023-03-01T13:00:59;31.60;;;16.83;;
39982;SDS011;25670;44.782;10.356;2023-03-01T13:12:03;35.40;;;16.70;;
39982;SDS011;25670;44.782;10.356;2023-03-01T13:17:02;38.72;;;17.70;;
39982;SDS011;25670;44.782;10.356;2023-03-01T13:19:29;32.42;;;17.15;;
39982;SDS011;25670;44.782;10.356;2023-03-01T13:21:57;32.58;;;16.80;;
39982;SDS011;25670;44.782;10.356;2023-03-01T13:29:44;36.90;;;17.98;;
39982;SDS011;25670;44.782;10.356;2023-03-01T13:32:21;27.92;;;16.48;;
39982;SDS011;25670;44.782;10.356;2023-03-01T13:34:54;33.35;;;17.25;;
39982;SDS011;25670;44.782;10.356;2023-03-01T13:37:29;35.38;;;17.63;;
39982;SDS011;25670;44.782;10.356;2023-03-01T13:39:58;30.30;;;17.02;;
39982;SDS011;25670;44.782;10.356;2023-03-01T13:42:31;32.55;;;15.95;;
39982;SDS011;25670;44.782;10.356;2023-03-01T13:45:04;37.33;;;15.45;;
39982;SDS011;25670;44.782;10.356;2023-03-01T13:48:09;33.17;;;16.63;;
39982;SDS011;25670;44.782;10.356;2023-03-01T13:50:49;31.15;;;17.05;;
39982;SDS011;25670;44.782;10.356;2023-03-01T13:53:19;30.30;;;18.13;;
39982;SDS011;25670;44.782;10.356;2023-03-01T13:55:50;32.42;;;17.55;;
39982;SDS011;25670;44.782;10.356;2023-03-01T13:58:22;30.70;;;17.77;;
39982;SDS011;25670;44.782;10.356;2023-03-01T14:00:56;30.63;;;17.40;;
39982;SDS011;25670;44.782;10.356;2023-03-01T14:03:22;36.13;;;18.13;;
39982;SDS011;25670;44.782;10.356;2023-03-01T14:08:41;40.65;;;18.80;;
39982;SDS011;25670;44.782;10.356;2023-03-01T14:16:54;35.08;;;19.17;;
39982;SDS011;25670;44.782;10.356;2023-03-01T14:19:27;37.83;;;19.35;;
39982;SDS011;25670;44.782;10.356;2023-03-01T14:24:49;34.80;;;19.80;;
39982;SDS011;25670;44.782;10.356;2023-03-01T14:27:18;34.13;;;18.45;;
39982;SDS011;25670;44.782;10.356;2023-03-01T14:29:53;46.85;;;19.92;;
39982;SDS011;25670;44.782;10.356;2023-03-01T14:32:25;40.42;;;20.63;;
39982;SDS011;25670;44.782;10.356;2023-03-01T14:34:58;39.75;;;19.70;;
39982;SDS011;25670;44.782;10.356;2023-03-01T14:37:29;42.55;;;19.50;;
39982;SDS011;25670;44.782;10.356;2023-03-01T14:39:58;36.88;;;19.15;;
39982;SDS011;25670;44.782;10.356;2023-03-01T14:42:30;35.00;;;18.40;;
39982;SDS011;25670;44.782;10.356;2023-03-01T14:45:00;38.40;;;18.83;;
39982;SDS011;25670;44.782;10.356;2023-03-01T14:47:28;36.40;;;18.83;;
39982;SDS011;25670;44.782;10.356;2023-03-01T14:49:59;38.78;;;18.80;;
39982;SDS011;25670;44.782;10.356;2023-03-01T14:52:47;34.17;;;18.45;;
39982;SDS011;25670;44.782;10.356;2023-03-01T14:55:18;39.63;;;20.08;;
39982;SDS011;25670;44.782;10.356;2023-03-01T14:57:47;41.85;;;20.08;;
39982;SDS011;25670;44.782;10.356;2023-03-01T15:00:22;36.47;;;19.38;;
39982;SDS011;25670;44.782;10.356;2023-03-01T15:02:54;37.75;;;19.25;;
39982;SDS011;25670;44.782;10.356;2023-03-01T15:05:32;38.78;;;19.48;;
39982;SDS011;25670;44.782;10.356;2023-03-01T15:08:00;40.10;;;19.27;;
39982;SDS011;25670;44.782;10.356;2023-03-01T15:10:31;43.67;;;19.90;;
39982;SDS011;25670;44.782;10.356;2023-03-01T15:15:38;44.85;;;20.23;;
39982;SDS011;25670;44.782;10.356;2023-03-01T15:18:19;61.58;;;30.63;;
39982;SDS011;25670;44.782;10.356;2023-03-01T15:20:48;37.78;;;18.60;;
39982;SDS011;25670;44.782;10.356;2023-03-01T15:23:22;43.45;;;20.35;;
39982;SDS011;25670;44.782;10.356;2023-03-01T15:25:53;36.47;;;19.80;;
39982;SDS011;25670;44.782;10.356;2023-03-01T15:30:55;40.60;;;20.63;;
39982;SDS011;25670;44.782;10.356;2023-03-01T15:33:37;38.22;;;19.77;;
39982;SDS011;25670;44.782;10.356;2023-03-01T15:39:05;38.60;;;20.42;;
39982;SDS011;25670;44.782;10.356;2023-03-01T15:41:32;36.25;;;19.58;;
39982;SDS011;25670;44.782;10.356;2023-03-01T15:47:32;34.47;;;18.00;;
39982;SDS011;25670;44.782;10.356;2023-03-01T15:50:00;37.17;;;19.83;;
39982;SDS011;25670;44.782;10.356;2023-03-01T15:52:28;41.78;;;20.80;;
39982;SDS011;25670;44.782;10.356;2023-03-01T15:55:03;35.10;;;18.60;;
39982;SDS011;25670;44.782;10.356;2023-03-01T15:57:40;37.63;;;19.67;;
39982;SDS011;25670;44.782;10.356;2023-03-01T16:00:10;34.65;;;19.45;;
39982;SDS011;25670;44.782;10.356;2023-03-01T16:02:39;42.22;;;20.50;;
39982;SDS011;25670;44.782;10.356;2023-03-01T16:05:12;36.60;;;19.23;;
39982;SDS011;25670;44.782;10.356;2023-03-01T16:07:52;49.83;;;21.25;;
39982;SDS011;25670;44.782;10.356;2023-03-01T16:10:19;41.95;;;21.08;;
39982;SDS011;25670;44.782;10.356;2023-03-01T16:12:46;39.65;;;21.10;;
39982;SDS011;25670;44.782;10.356;2023-03-01T16:15:18;35.40;;;19.20;;
39982;SDS011;25670;44.782;10.356;2023-03-01T16:17:46;36.65;;;19.77;;
39982;SDS011;25670;44.782;10.356;2023-03-01T16:20:21;45.05;;;22.58;;
39982;SDS011;25670;44.782;10.356;2023-03-01T16:22:48;42.38;;;21.77;;
39982;SDS011;25670;44.782;10.356;2023-03-01T16:25:16;43.55;;;21.58;;
39982;SDS011;25670;44.782;10.356;2023-03-01T16:27:47;41.78;;;22.60;;
39982;SDS011;25670;44.782;10.356;2023-03-01T16:30:21;46.78;;;22.52;;
39982;SDS011;25670;44.782;10.356;2023-03-01T16:32:48;44.25;;;22.73;;
39982;SDS011;25670;44.782;10.356;2023-03-01T16:35:19;47.08;;;22.60;;
39982;SDS011;25670;44.782;10.356;2023-03-01T16:37:48;43.22;;;22.50;;
39982;SDS011;25670;44.782;10.356;2023-03-01T16:40:20;46.72;;;22.10;;
39982;SDS011;25670;44.782;10.356;2023-03-01T16:42:49;45.28;;;21.17;;
39982;SDS011;25670;44.782;10.356;2023-03-01T16:45:17;44.50;;;21.60;;